CheckWX is a tool to help pilots better visualize weather data.  It is not intended as a substitute for an official pre-flight weather briefing.

16:57:20 UTC

ETND TAF
Diepholz Airport
Diepholz, Germany
TAF ETND 181325Z 1813/1820 15007KT 9999 NSW FEW060 BKN240 TEMPO 1813/1817 VRB10KT 9999 NSW SCT050CB BKN190 PROB30 1813/1817 VRB15G25KT 5000 TSRA BKN050CB BKN180 CANCEL 1330 BY ETGL

Jun-18@
13:00 UTC

Jun-18 @ 13:00 UTC

Jun-18@
20:00 UTC

Jun-18 @ 20:00 UTC

TAF ETND 181325Z 1813/1820 15007KT 9999 NSW FEW060 BKN240
Wind
  • 150° at 7 KTS
Conditions
No significant weather
Cloud Levels
  • Few at 6,000' AGL
  • Broken at 24,000' AGL

Jun-18@
13:00 UTC

Jun-18 @ 13:00 UTC

Jun-18@
17:00 UTC

Jun-18 @ 17:00 UTC

TEMPO 1813/1817 VRB10KT 9999 NSW SCT050CB BKN190

Temporary

Temporary Changes expected for less than half the time period

Wind
  • Variable at 10 KTS
Conditions
No significant weather
Cloud Levels
  • Scattered at 5,000' AGL
  • Broken at 19,000' AGL

Jun-18@
13:00 UTC

Jun-18 @ 13:00 UTC

Jun-18@
17:00 UTC

Jun-18 @ 17:00 UTC

PROB30 1813/1817 VRB15G25KT 5000 TSRA BKN050CB BKN180 CANCEL 1330 BY ETGL

Probable - 30% Likelihood

Probable - 30% Likelihood during this time.

Wind
  • Variable at 15 KTS
  • {Gusting to 25 KTS
Conditions
Thunderstorm, Rain
Cloud Levels
  • Broken at 5,000' AGL
  • Broken at 18,000' AGL